Time;durP1;ratioP1;P1;durP2;ratioP2;P2;SDS_P1;SDS_P2;PMS_P1;PMS_P2;Temp;Humidity;BMP_temperature;BMP_pressure;BME280_temperature;BME280_humidity;BME280_pressure;Samples;Min_cycle;Max_cycle;Signal;HPM_P1;HPM_P2
2023/05/14 00:01:27;;;;;;;11.55;6.95;;;13.10;99.90;;;;;;6272736;22;20026;-71
2023/05/14 00:03:53;;;;;;;11.27;8.23;;;13.10;99.90;;;;;;6270934;22;20030;-71
2023/05/14 00:06:19;;;;;;;13.27;8.35;;;13.00;99.90;;;;;;6271763;22;20020;-71
2023/05/14 00:08:44;;;;;;;12.60;7.97;;;13.00;99.90;;;;;;6244807;22;20028;-71
2023/05/14 00:11:10;;;;;;;15.57;8.52;;;13.00;99.90;;;;;;6244620;22;20026;-71
2023/05/14 00:13:36;;;;;;;13.52;7.93;;;13.00;99.90;;;;;;6271462;22;20027;-71
2023/05/14 00:16:02;;;;;;;21.85;8.60;;;13.00;99.90;;;;;;6272095;22;20436;-71
2023/05/14 00:18:28;;;;;;;18.10;7.93;;;12.90;99.90;;;;;;6272595;22;20022;-71
2023/05/14 00:20:53;;;;;;;11.02;8.55;;;12.90;99.90;;;;;;6274151;22;20016;-83
2023/05/14 00:23:23;;;;;;;15.57;7.53;;;12.90;99.90;;;;;;6274058;22;20020;-82
2023/05/14 00:25:49;;;;;;;16.08;8.02;;;12.90;99.90;;;;;;6273753;22;20455;-82
2023/05/14 00:28:15;;;;;;;17.60;8.75;;;12.90;99.90;;;;;;6273971;22;20094;-82
2023/05/14 00:30:41;;;;;;;10.85;8.15;;;12.90;99.90;;;;;;6274045;22;20059;-82
2023/05/14 00:33:07;;;;;;;14.65;8.52;;;12.80;99.90;;;;;;6274294;22;20102;-82
2023/05/14 00:35:35;;;;;;;15.07;9.00;;;12.80;99.90;;;;;;6273528;22;20452;-72
2023/05/14 00:38:02;;;;;;;17.80;8.23;;;12.80;99.90;;;;;;6272198;22;20031;-70
2023/05/14 00:40:28;;;;;;;13.18;8.65;;;12.80;99.90;;;;;;6271964;22;20471;-69
2023/05/14 00:42:55;;;;;;;10.82;7.90;;;12.80;99.90;;;;;;6271635;22;20015;-69
2023/05/14 00:45:21;;;;;;;13.07;8.30;;;12.70;99.90;;;;;;6272119;22;20102;-69
2023/05/14 00:47:48;;;;;;;12.95;8.65;;;12.70;99.90;;;;;;6272225;22;20027;-69
2023/05/14 00:50:15;;;;;;;14.68;8.77;;;12.70;99.90;;;;;;6272281;22;20012;-69
2023/05/14 00:52:41;;;;;;;13.98;8.90;;;12.70;99.90;;;;;;6244532;22;20027;-70
2023/05/14 00:55:08;;;;;;;13.63;9.43;;;12.60;99.90;;;;;;6271786;22;20343;-69
2023/05/14 00:57:34;;;;;;;15.05;9.38;;;12.70;99.90;;;;;;6271881;22;20016;-69
2023/05/14 01:00:01;;;;;;;14.05;8.88;;;12.60;99.90;;;;;;6244756;22;20169;-69
2023/05/14 01:02:27;;;;;;;11.82;8.48;;;12.70;99.90;;;;;;6272079;22;20022;-68
2023/05/14 01:04:53;;;;;;;18.67;10.20;;;12.60;99.90;;;;;;6272389;22;20023;-69
2023/05/14 01:07:43;;;;;;;18.10;9.35;;;12.60;99.90;;;;;;6244708;22;20482;-69
2023/05/14 01:10:42;;;;;;;16.20;8.82;;;12.60;99.90;;;;;;6272233;22;20107;-69
2023/05/14 01:13:45;;;;;;;11.00;8.80;;;12.50;99.90;;;;;;6243119;22;20085;-69
2023/05/14 01:16:13;;;;;;;16.45;9.45;;;12.60;99.90;;;;;;6272386;22;20024;-69
2023/05/14 01:18:40;;;;;;;20.67;10.15;;;12.60;99.90;;;;;;6271746;22;20023;-70
2023/05/14 01:21:35;;;;;;;18.35;9.45;;;12.50;99.90;;;;;;6271265;22;20074;-70
2023/05/14 01:24:01;;;;;;;15.23;8.80;;;12.60;99.90;;;;;;6272115;22;20019;-69
2023/05/14 01:26:29;;;;;;;20.23;9.77;;;12.50;99.90;;;;;;6272144;22;20027;-70
2023/05/14 01:29:02;;;;;;;13.70;9.10;;;12.50;99.90;;;;;;6271717;22;20081;-70
2023/05/14 01:31:33;;;;;;;14.95;8.93;;;12.50;99.90;;;;;;6272735;22;20012;-70
2023/05/14 01:34:01;;;;;;;12.73;9.70;;;12.50;99.90;;;;;;6271331;22;20124;-70
2023/05/14 01:36:28;;;;;;;19.83;9.88;;;12.50;99.90;;;;;;6272538;22;20102;-80
2023/05/14 01:38:55;;;;;;;16.35;10.35;;;12.40;99.90;;;;;;6245689;22;20096;-80
2023/05/14 01:41:22;;;;;;;17.42;10.02;;;12.40;99.90;;;;;;6273185;22;20556;-80
2023/05/14 01:43:48;;;;;;;16.85;9.13;;;12.40;99.90;;;;;;6245874;22;20150;-81
2023/05/14 01:46:17;;;;;;;15.02;9.38;;;12.40;99.90;;;;;;6273502;22;20093;-80
2023/05/14 01:48:43;;;;;;;18.50;9.70;;;12.40;99.90;;;;;;6273325;22;20077;-81
2023/05/14 01:51:09;;;;;;;14.80;10.43;;;12.40;99.90;;;;;;6273220;22;20027;-78
2023/05/14 01:53:34;;;;;;;16.88;10.60;;;12.30;99.90;;;;;;6273788;22;20023;-79
2023/05/14 01:56:00;;;;;;;15.23;10.05;;;12.20;99.90;;;;;;6273153;22;20020;-82
2023/05/14 01:58:26;;;;;;;15.95;9.85;;;12.20;99.90;;;;;;6273306;22;20023;-83
2023/05/14 02:00:52;;;;;;;17.65;9.95;;;12.20;99.90;;;;;;6273538;22;20031;-81
2023/05/14 02:03:17;;;;;;;14.45;9.88;;;12.20;99.90;;;;;;6272692;22;20047;-80
2023/05/14 02:05:43;;;;;;;17.83;10.00;;;12.10;99.90;;;;;;6273178;22;20011;-81
2023/05/14 02:08:08;;;;;;;15.13;9.77;;;12.20;99.90;;;;;;6273529;22;20056;-81
2023/05/14 02:10:34;;;;;;;14.85;9.45;;;12.10;99.90;;;;;;6273321;22;20050;-80
2023/05/14 02:13:00;;;;;;;17.67;10.75;;;12.10;99.90;;;;;;6272353;22;20055;-78
2023/05/14 02:15:26;;;;;;;16.55;9.40;;;12.10;99.90;;;;;;6273373;22;20019;-78
2023/05/14 02:17:51;;;;;;;17.83;10.65;;;12.00;99.90;;;;;;6247137;22;20027;-79
2023/05/14 02:20:17;;;;;;;16.15;10.25;;;12.10;99.90;;;;;;6273638;22;20030;-79
2023/05/14 02:22:44;;;;;;;16.35;9.40;;;12.10;99.90;;;;;;6273667;22;20676;-79
2023/05/14 02:25:10;;;;;;;16.30;9.57;;;12.00;99.90;;;;;;6273712;22;20019;-78
2023/05/14 02:27:36;;;;;;;17.35;9.57;;;11.90;99.90;;;;;;6274369;22;20027;-79
2023/05/14 02:30:03;;;;;;;16.27;9.70;;;11.90;99.90;;;;;;6273579;22;20051;-79
2023/05/14 02:32:29;;;;;;;17.85;10.07;;;11.80;99.90;;;;;;6246123;22;20355;-67
2023/05/14 02:34:54;;;;;;;16.77;11.20;;;11.90;99.90;;;;;;6271183;22;20024;-67
2023/05/14 02:37:20;;;;;;;18.08;10.57;;;11.90;99.90;;;;;;6271404;22;20461;-67
2023/05/14 02:39:46;;;;;;;18.40;10.43;;;11.80;99.90;;;;;;6271573;22;20031;-67
2023/05/14 02:42:11;;;;;;;18.55;10.77;;;11.80;99.90;;;;;;6271192;22;20022;-66
2023/05/14 02:44:37;;;;;;;14.02;9.45;;;11.80;99.90;;;;;;6271372;22;20023;-67
2023/05/14 02:47:03;;;;;;;15.13;9.13;;;11.80;99.90;;;;;;6271518;22;20011;-67
2023/05/14 02:49:28;;;;;;;19.70;10.60;;;11.70;99.90;;;;;;6271812;22;20073;-79
2023/05/14 02:51:55;;;;;;;14.52;10.50;;;11.70;99.90;;;;;;6273595;22;20019;-81
2023/05/14 02:54:21;;;;;;;17.50;10.38;;;11.80;99.90;;;;;;6272484;22;20023;-81
2023/05/14 02:56:47;;;;;;;15.65;10.32;;;11.70;99.90;;;;;;6245265;22;20028;-81
2023/05/14 02:59:13;;;;;;;15.93;9.57;;;11.70;99.90;;;;;;6272917;22;20016;-81
2023/05/14 03:01:38;;;;;;;20.85;10.23;;;11.70;99.90;;;;;;6273015;22;20023;-81
2023/05/14 03:04:04;;;;;;;19.88;9.75;;;11.70;99.90;;;;;;6272450;22;20035;-80
2023/05/14 03:06:30;;;;;;;20.58;11.18;;;11.70;99.90;;;;;;6272647;22;20022;-79
2023/05/14 03:08:56;;;;;;;14.73;10.13;;;11.70;99.90;;;;;;6272057;22;20423;-79
2023/05/14 03:11:22;;;;;;;22.30;10.88;;;11.80;99.90;;;;;;6272700;22;20047;-80
2023/05/14 03:13:47;;;;;;;14.50;8.95;;;11.70;99.90;;;;;;6272252;22;20016;-80
2023/05/14 03:16:13;;;;;;;17.70;9.80;;;11.70;99.90;;;;;;6245364;22;20718;-80
2023/05/14 03:18:39;;;;;;;14.43;9.40;;;11.70;99.90;;;;;;6245144;22;20023;-80
2023/05/14 03:21:05;;;;;;;16.98;10.05;;;11.80;99.90;;;;;;6272398;22;20066;-80
2023/05/14 03:23:33;;;;;;;15.10;10.13;;;11.80;99.90;;;;;;6246929;22;20027;-78
2023/05/14 03:25:59;;;;;;;18.05;10.57;;;11.80;99.90;;;;;;6275054;22;20020;-79
2023/05/14 03:28:25;;;;;;;14.80;9.27;;;11.70;99.90;;;;;;6274080;22;20012;-70
2023/05/14 03:30:51;;;;;;;15.93;9.77;;;11.80;99.90;;;;;;6274431;22;20015;-79
2023/05/14 03:33:17;;;;;;;16.13;9.57;;;11.70;99.90;;;;;;6274838;22;20348;-79
2023/05/14 03:35:42;;;;;;;17.85;10.52;;;11.70;99.90;;;;;;6274753;22;20059;-80
2023/05/14 03:38:08;;;;;;;22.30;9.90;;;11.70;99.90;;;;;;6274336;22;20015;-80
2023/05/14 03:40:34;;;;;;;22.02;10.43;;;11.60;99.90;;;;;;6274531;22;20435;-80
2023/05/14 03:43:00;;;;;;;16.63;9.60;;;11.60;99.90;;;;;;6274974;22;20081;-80
2023/05/14 03:45:27;;;;;;;19.98;10.02;;;11.60;99.90;;;;;;6247324;22;20050;-79
2023/05/14 03:47:53;;;;;;;15.15;9.65;;;11.60;99.90;;;;;;6247383;22;20470;-82
2023/05/14 03:50:18;;;;;;;15.23;10.25;;;11.60;99.90;;;;;;6274681;22;20094;-79
2023/05/14 03:52:44;;;;;;;14.35;9.10;;;11.60;99.90;;;;;;6274239;22;20020;-80
2023/05/14 03:55:10;;;;;;;17.25;9.57;;;11.50;99.90;;;;;;6274631;22;20022;-79
2023/05/14 03:57:36;;;;;;;13.93;9.77;;;11.60;99.90;;;;;;6274621;22;20463;-79
2023/05/14 04:00:03;;;;;;;17.45;9.93;;;11.60;99.90;;;;;;6275958;22;20028;-80
2023/05/14 04:02:29;;;;;;;15.75;9.73;;;11.40;99.90;;;;;;6274943;22;20023;-79
2023/05/14 04:04:55;;;;;;;16.90;9.93;;;11.40;99.90;;;;;;6275183;22;20015;-80
2023/05/14 04:07:20;;;;;;;14.73;9.38;;;11.60;99.90;;;;;;6274227;22;20027;-81
2023/05/14 04:09:46;;;;;;;15.52;9.88;;;11.60;99.90;;;;;;6274819;22;20091;-79
2023/05/14 04:12:12;;;;;;;19.92;10.93;;;11.60;99.90;;;;;;6274129;22;20051;-80
2023/05/14 04:14:38;;;;;;;16.27;10.70;;;11.60;99.90;;;;;;6247738;22;20027;-80
2023/05/14 04:17:03;;;;;;;16.00;10.40;;;11.40;99.90;;;;;;6274639;22;20145;-80
2023/05/14 04:19:29;;;;;;;15.77;11.70;;;11.50;99.90;;;;;;6247138;22;20024;-80
2023/05/14 04:21:55;;;;;;;19.05;10.85;;;11.50;99.90;;;;;;6274068;22;20020;-80
2023/05/14 04:24:20;;;;;;;14.43;11.13;;;11.40;99.90;;;;;;6274601;22;20077;-78
2023/05/14 04:26:46;;;;;;;18.35;9.95;;;11.30;99.90;;;;;;6274705;22;20020;-79
2023/05/14 04:29:12;;;;;;;17.00;10.35;;;11.30;99.90;;;;;;6273575;22;20069;-79
2023/05/14 04:31:38;;;;;;;15.57;9.45;;;11.20;99.90;;;;;;6273590;22;20047;-79
2023/05/14 04:34:04;;;;;;;15.98;9.98;;;11.30;99.90;;;;;;6272854;22;20095;-79
2023/05/14 04:36:30;;;;;;;18.38;10.90;;;11.20;99.90;;;;;;6273497;22;20059;-79
2023/05/14 04:38:56;;;;;;;16.92;10.93;;;11.20;99.90;;;;;;6273385;22;20133;-78
2023/05/14 04:41:21;;;;;;;20.05;11.90;;;11.30;99.90;;;;;;6273973;22;20463;-78
2023/05/14 04:43:49;;;;;;;18.65;10.98;;;11.30;99.90;;;;;;6274009;22;20016;-78
2023/05/14 04:46:14;;;;;;;18.67;11.98;;;11.30;99.90;;;;;;6273586;22;20098;-80
2023/05/14 04:48:40;;;;;;;18.90;11.23;;;11.30;99.90;;;;;;6245723;22;20051;-79
2023/05/14 04:51:06;;;;;;;17.23;10.25;;;11.30;99.90;;;;;;6246090;22;20082;-80
2023/05/14 04:53:32;;;;;;;14.75;11.20;;;11.40;99.90;;;;;;6273033;22;20035;-79
2023/05/14 04:55:58;;;;;;;18.88;11.05;;;11.50;99.90;;;;;;6273240;22;20022;-79
2023/05/14 04:58:23;;;;;;;16.23;11.00;;;11.50;99.90;;;;;;6246190;22;20019;-77
2023/05/14 05:00:49;;;;;;;18.40;11.25;;;11.50;99.90;;;;;;6273393;22;20019;-79
2023/05/14 05:03:15;;;;;;;20.08;11.35;;;11.60;99.90;;;;;;6272836;22;20077;-79
2023/05/14 05:05:41;;;;;;;19.23;10.43;;;11.70;99.90;;;;;;6273326;22;20019;-79
2023/05/14 05:08:06;;;;;;;18.00;11.05;;;11.70;99.90;;;;;;6273051;22;20023;-80
2023/05/14 05:10:32;;;;;;;20.60;11.18;;;11.80;99.90;;;;;;6273340;22;20019;-79
2023/05/14 05:12:58;;;;;;;17.67;11.55;;;11.90;99.90;;;;;;6273058;22;20624;-79
2023/05/14 05:15:23;;;;;;;18.33;11.43;;;12.00;99.90;;;;;;6272225;22;20528;-79
2023/05/14 05:17:49;;;;;;;20.10;10.63;;;12.00;99.90;;;;;;6272975;22;20016;-79
2023/05/14 05:20:15;;;;;;;16.83;10.68;;;12.10;99.90;;;;;;6272807;22;20019;-78
2023/05/14 05:22:40;;;;;;;15.85;10.50;;;12.20;99.90;;;;;;6272398;22;20082;-68
2023/05/14 05:25:07;;;;;;;17.35;11.05;;;12.30;99.90;;;;;;6274860;22;20007;-77
2023/05/14 05:27:33;;;;;;;15.43;11.05;;;12.40;99.90;;;;;;6248892;22;20112;-77
2023/05/14 05:30:02;;;;;;;15.20;10.82;;;12.60;99.90;;;;;;6279480;22;20708;-78
2023/05/14 05:32:28;;;;;;;18.00;10.93;;;12.70;99.90;;;;;;6252539;22;20090;-77
2023/05/14 05:34:54;;;;;;;20.00;11.20;;;12.80;99.90;;;;;;6279483;22;20028;-78
2023/05/14 05:37:20;;;;;;;17.88;11.02;;;12.90;99.90;;;;;;6252528;22;20027;-78
2023/05/14 05:39:47;;;;;;;16.38;11.40;;;13.10;99.90;;;;;;6280349;22;20046;-79
2023/05/14 05:42:13;;;;;;;15.00;9.70;;;13.10;99.90;;;;;;6248879;22;20032;-67
2023/05/14 05:44:39;;;;;;;16.73;10.75;;;13.20;99.90;;;;;;6274054;22;20055;-67
2023/05/14 05:47:05;;;;;;;17.02;9.82;;;13.40;99.90;;;;;;6272826;22;20039;-66
2023/05/14 05:49:30;;;;;;;20.13;11.10;;;13.30;99.90;;;;;;6272959;22;20146;-67
2023/05/14 05:51:56;;;;;;;15.40;9.25;;;13.40;99.90;;;;;;6246217;22;20054;-68
2023/05/14 05:54:23;;;;;;;14.98;9.52;;;13.50;99.90;;;;;;6273279;22;20324;-67
2023/05/14 05:56:49;;;;;;;16.40;10.13;;;13.60;99.90;;;;;;6245713;22;20024;-67
2023/05/14 05:59:15;;;;;;;16.40;11.18;;;13.60;99.90;;;;;;6273512;22;20447;-67
2023/05/14 06:01:42;;;;;;;14.82;9.70;;;13.50;99.90;;;;;;6253142;22;20067;-67
2023/05/14 06:04:08;;;;;;;15.13;10.27;;;13.60;99.90;;;;;;6245679;22;20058;-67
2023/05/14 06:06:34;;;;;;;18.67;9.95;;;13.70;99.90;;;;;;6272355;22;20095;-67
2023/05/14 06:09:00;;;;;;;13.32;9.23;;;13.80;99.90;;;;;;6273386;22;20467;-67
2023/05/14 06:11:27;;;;;;;13.60;10.48;;;13.80;99.90;;;;;;6271273;22;20111;-67
2023/05/14 06:13:53;;;;;;;18.17;9.63;;;13.70;99.90;;;;;;6270884;22;20030;-68
2023/05/14 06:16:18;;;;;;;11.88;8.90;;;13.80;99.90;;;;;;6269813;22;20019;-68
2023/05/14 06:18:45;;;;;;;16.90;9.45;;;13.90;99.90;;;;;;6271040;22;20016;-72
2023/05/14 06:21:11;;;;;;;14.63;9.15;;;13.90;99.90;;;;;;6272798;22;20019;-80
2023/05/14 06:23:36;;;;;;;16.27;9.82;;;14.00;99.90;;;;;;6245048;22;20020;-82
2023/05/14 06:26:02;;;;;;;20.27;10.13;;;14.00;99.90;;;;;;6272051;22;20055;-81
2023/05/14 06:28:28;;;;;;;16.65;9.98;;;14.00;99.90;;;;;;6272058;22;20086;-77
2023/05/14 06:30:53;;;;;;;14.35;9.55;;;14.00;99.90;;;;;;6270966;22;20026;-75
2023/05/14 06:33:28;;;;;;;16.83;9.40;;;14.10;99.90;;;;;;6271538;22;20058;-76
2023/05/14 06:35:54;;;;;;;16.77;8.65;;;14.20;99.90;;;;;;6271195;22;20043;-75
2023/05/14 06:38:19;;;;;;;12.50;8.85;;;14.30;99.90;;;;;;6272075;22;20047;-75
2023/05/14 06:40:45;;;;;;;15.65;9.68;;;14.40;99.90;;;;;;6271067;22;20023;-69
2023/05/14 06:43:11;;;;;;;16.70;10.23;;;14.40;99.90;;;;;;6270583;22;20649;-72
2023/05/14 06:45:36;;;;;;;12.80;8.60;;;14.40;99.90;;;;;;6270623;22;20022;-72
2023/05/14 06:48:03;;;;;;;14.43;9.02;;;14.50;99.90;;;;;;6270970;22;20082;-72
2023/05/14 06:50:29;;;;;;;15.38;8.57;;;14.60;99.90;;;;;;6271402;22;20405;-72
2023/05/14 06:52:55;;;;;;;12.98;9.05;;;14.60;99.90;;;;;;6270868;22;20051;-73
2023/05/14 06:55:21;;;;;;;14.90;9.30;;;14.60;99.90;;;;;;6271001;22;20026;-72
2023/05/14 06:57:46;;;;;;;13.95;8.45;;;14.60;99.90;;;;;;6219693;22;20619;-78
2023/05/14 07:00:13;;;;;;;14.57;8.45;;;14.70;99.90;;;;;;6273988;22;20363;-79
2023/05/14 07:02:39;;;;;;;13.75;8.98;;;14.80;99.90;;;;;;6274380;22;20015;-79
2023/05/14 07:05:05;;;;;;;17.95;8.88;;;14.90;99.90;;;;;;6274009;22;20020;-79
2023/05/14 07:07:30;;;;;;;12.75;8.45;;;14.90;99.90;;;;;;6274454;22;20020;-78
2023/05/14 07:09:56;;;;;;;18.17;9.38;;;15.10;99.90;;;;;;6247075;22;20462;-78
2023/05/14 07:12:22;;;;;;;14.82;8.93;;;15.10;99.90;;;;;;6273559;22;20034;-79
2023/05/14 07:14:47;;;;;;;14.55;8.38;;;15.30;99.90;;;;;;6273322;22;20016;-78
2023/05/14 07:17:13;;;;;;;14.57;8.80;;;15.40;99.90;;;;;;6246128;22;20042;-69
2023/05/14 07:19:39;;;;;;;13.13;8.57;;;15.40;99.90;;;;;;6272863;22;20008;-68
2023/05/14 07:22:05;;;;;;;11.63;8.32;;;15.50;99.90;;;;;;6272528;22;20016;-69
2023/05/14 07:24:31;;;;;;;12.27;8.05;;;15.60;99.90;;;;;;6245243;22;20773;-69
2023/05/14 07:26:56;;;;;;;14.95;8.38;;;15.60;99.90;;;;;;6245595;22;20019;-69
2023/05/14 07:29:24;;;;;;;13.77;8.23;;;15.70;99.90;;;;;;6272642;22;20062;-69
2023/05/14 07:31:50;;;;;;;13.32;8.15;;;15.90;99.90;;;;;;6244368;22;20110;-69
2023/05/14 07:34:15;;;;;;;10.68;7.78;;;15.90;99.90;;;;;;6273192;22;20047;-68
2023/05/14 07:36:41;;;;;;;13.13;7.47;;;16.00;99.90;;;;;;6272772;22;20019;-69
2023/05/14 07:39:07;;;;;;;11.98;8.73;;;16.00;99.90;;;;;;6272664;22;20015;-68
2023/05/14 07:41:33;;;;;;;12.77;7.80;;;16.00;99.90;;;;;;6273072;22;20086;-69
2023/05/14 07:43:58;;;;;;;16.00;8.13;;;16.00;99.90;;;;;;6272505;22;20467;-69
2023/05/14 07:46:24;;;;;;;12.32;8.32;;;16.10;99.90;;;;;;6245453;22;20027;-66
2023/05/14 07:48:50;;;;;;;14.05;7.70;;;16.10;99.90;;;;;;6273052;22;20094;-69
2023/05/14 07:51:16;;;;;;;12.85;7.53;;;16.20;99.90;;;;;;6272498;22;20020;-69
2023/05/14 07:53:42;;;;;;;20.85;8.50;;;16.30;99.90;;;;;;6245440;22;20106;-69
2023/05/14 07:56:07;;;;;;;14.95;7.30;;;16.40;99.90;;;;;;6272660;22;20439;-68
2023/05/14 07:58:34;;;;;;;10.27;7.15;;;16.40;99.90;;;;;;6272724;22;20011;-69
2023/05/14 08:01:00;;;;;;;11.25;7.47;;;16.50;99.90;;;;;;6273270;22;20019;-69
2023/05/14 08:03:26;;;;;;;10.30;7.00;;;16.70;99.90;;;;;;6273111;22;20019;-69
2023/05/14 08:05:51;;;;;;;14.85;7.20;;;16.60;99.90;;;;;;6272647;22;20470;-69
2023/05/14 08:08:17;;;;;;;12.68;7.10;;;16.60;99.90;;;;;;6244163;22;20023;-70
2023/05/14 08:10:43;;;;;;;11.75;7.00;;;16.60;99.90;;;;;;6244889;22;20287;-67
2023/05/14 08:13:09;;;;;;;13.40;7.38;;;16.60;99.90;;;;;;6271698;22;20027;-78
2023/05/14 08:15:34;;;;;;;14.85;7.03;;;16.80;99.90;;;;;;6273649;22;20519;-67
2023/05/14 08:18:02;;;;;;;12.05;7.20;;;16.80;99.90;;;;;;6272020;22;20015;-67
2023/05/14 08:20:29;;;;;;;13.77;8.35;;;16.90;99.90;;;;;;6272106;22;20069;-68
2023/05/14 08:22:56;;;;;;;10.70;7.88;;;16.90;99.90;;;;;;6271802;22;20022;-67
2023/05/14 08:25:23;;;;;;;11.43;8.00;;;17.00;99.90;;;;;;6243968;22;20130;-68
2023/05/14 08:27:49;;;;;;;16.15;8.50;;;17.10;99.90;;;;;;6270586;22;20019;-68
2023/05/14 08:30:15;;;;;;;12.15;8.02;;;17.10;99.90;;;;;;6270013;22;20031;-68
2023/05/14 08:32:41;;;;;;;10.65;7.80;;;17.20;99.90;;;;;;6270244;22;20019;-68
2023/05/14 08:35:07;;;;;;;15.43;8.98;;;17.20;99.90;;;;;;6271397;22;20026;-68
2023/05/14 08:37:33;;;;;;;10.70;7.75;;;17.20;99.90;;;;;;6242848;22;20023;-67
2023/05/14 08:39:59;;;;;;;13.07;8.00;;;17.20;99.90;;;;;;6269210;22;20333;-67
2023/05/14 08:42:27;;;;;;;11.30;7.68;;;17.30;99.90;;;;;;6242192;22;20024;-68
2023/05/14 08:44:59;;;;;;;11.55;7.90;;;17.40;99.90;;;;;;6270636;22;20020;-68
2023/05/14 08:47:25;;;;;;;14.65;9.38;;;17.40;99.90;;;;;;6270364;22;20111;-68
2023/05/14 08:50:05;;;;;;;15.68;7.93;;;17.40;99.90;;;;;;6270687;22;20087;-67
2023/05/14 08:52:32;;;;;;;14.82;8.55;;;17.50;99.90;;;;;;6270973;22;20023;-67
2023/05/14 08:54:59;;;;;;;13.40;8.82;;;17.50;99.90;;;;;;6243475;22;20019;-68
2023/05/14 08:57:26;;;;;;;13.57;10.05;;;17.60;99.90;;;;;;6243119;22;20081;-69
2023/05/14 08:59:52;;;;;;;13.80;9.80;;;17.70;99.90;;;;;;6242722;22;20024;-69
2023/05/14 09:02:23;;;;;;;13.65;11.00;;;17.70;99.90;;;;;;6242700;22;20051;-69
2023/05/14 09:04:53;;;;;;;12.90;9.32;;;17.70;99.90;;;;;;6270969;22;20023;-69
2023/05/14 09:07:19;;;;;;;16.33;10.20;;;17.90;99.90;;;;;;6271232;22;20020;-69
2023/05/14 09:09:46;;;;;;;14.15;10.70;;;17.90;99.90;;;;;;6270692;22;20479;-69
2023/05/14 09:12:12;;;;;;;12.82;9.63;;;17.80;99.90;;;;;;6271184;22;20432;-71
2023/05/14 09:14:37;;;;;;;14.80;9.20;;;17.80;99.90;;;;;;6243376;22;20096;-72
2023/05/14 09:17:03;;;;;;;14.82;9.63;;;17.80;99.90;;;;;;6270217;22;20089;-72
2023/05/14 09:19:29;;;;;;;14.95;9.93;;;17.90;99.90;;;;;;6271104;22;20016;-71
2023/05/14 09:21:59;;;;;;;16.17;9.80;;;17.90;99.90;;;;;;6271486;22;20020;-72
2023/05/14 09:24:29;;;;;;;15.27;9.52;;;17.90;99.90;;;;;;6271730;22;20062;-71
2023/05/14 09:26:56;;;;;;;14.18;9.57;;;17.80;99.90;;;;;;6243547;22;20406;-71
2023/05/14 09:29:29;;;;;;;12.55;9.35;;;17.80;99.90;;;;;;6270445;22;20030;-72
2023/05/14 09:31:56;;;;;;;14.25;8.73;;;17.70;99.90;;;;;;6271150;22;20125;-72
2023/05/14 09:34:27;;;;;;;13.43;8.68;;;17.70;99.90;;;;;;6243265;22;20098;-72
2023/05/14 09:36:56;;;;;;;15.70;8.63;;;17.70;99.90;;;;;;6271129;22;20111;-67
2023/05/14 09:39:23;;;;;;;13.35;8.73;;;17.70;99.90;;;;;;6271569;22;20108;-68
2023/05/14 09:41:50;;;;;;;11.55;9.00;;;17.80;99.90;;;;;;6243408;22;20024;-68
2023/05/14 09:44:17;;;;;;;16.80;9.35;;;17.80;99.90;;;;;;6271347;22;20426;-68
2023/05/14 09:46:43;;;;;;;13.30;8.60;;;17.90;99.90;;;;;;6271752;22;20024;-68
2023/05/14 09:49:09;;;;;;;10.95;9.20;;;17.90;99.90;;;;;;6271339;22;20024;-68
2023/05/14 09:51:36;;;;;;;11.15;8.10;;;18.00;99.90;;;;;;6243437;22;20023;-70
2023/05/14 09:54:03;;;;;;;14.95;8.60;;;18.10;99.90;;;;;;6271072;22;20123;-70
2023/05/14 09:56:29;;;;;;;13.95;8.52;;;18.20;99.90;;;;;;6271450;22;20020;-70
2023/05/14 09:58:55;;;;;;;11.57;8.18;;;18.10;99.90;;;;;;6270944;22;20020;-70
2023/05/14 10:01:21;;;;;;;9.65;7.72;;;18.10;99.90;;;;;;6270885;22;20012;-70
2023/05/14 10:03:48;;;;;;;9.13;7.28;;;18.20;99.90;;;;;;6243664;22;20067;-70
2023/05/14 10:06:16;;;;;;;16.48;8.20;;;18.20;99.90;;;;;;6243268;22;20019;-70
2023/05/14 10:08:48;;;;;;;10.10;7.43;;;18.40;99.90;;;;;;6271155;22;20035;-70
2023/05/14 10:11:36;;;;;;;10.73;6.53;;;18.40;99.90;;;;;;6271726;22;20046;-70
2023/05/14 10:14:28;;;;;;;9.52;6.85;;;18.40;99.90;;;;;;6269091;22;20269;-69
2023/05/14 10:16:57;;;;;;;9.40;6.72;;;18.40;99.90;;;;;;6269699;22;20027;-69
2023/05/14 10:19:25;;;;;;;6.13;5.32;;;18.60;99.90;;;;;;6270085;22;20008;-68
2023/05/14 10:22:03;;;;;;;8.32;5.13;;;18.70;99.90;;;;;;6242437;22;20070;-69
2023/05/14 10:24:30;;;;;;;10.27;5.18;;;18.70;99.90;;;;;;6270105;22;20490;-69
2023/05/14 10:26:57;;;;;;;6.70;4.75;;;18.80;99.90;;;;;;6270033;22;20020;-65
2023/05/14 10:29:36;;;;;;;7.88;5.05;;;18.90;99.90;;;;;;6241883;22;20051;-65
2023/05/14 10:32:07;;;;;;;8.90;4.50;;;18.90;99.90;;;;;;6269750;22;20352;-64
2023/05/14 10:34:39;;;;;;;9.95;4.78;;;18.90;99.90;;;;;;6270717;22;20019;-64
2023/05/14 10:37:25;;;;;;;9.32;5.70;;;19.00;99.90;;;;;;6271269;22;20080;-64
2023/05/14 10:39:53;;;;;;;8.18;5.32;;;19.00;99.90;;;;;;6271114;22;20336;-64
2023/05/14 10:42:24;;;;;;;10.43;6.47;;;19.00;99.90;;;;;;6269849;22;20015;-65
2023/05/14 10:45:00;;;;;;;9.53;5.67;;;19.30;99.90;;;;;;6271742;22;20023;-64
2023/05/14 10:47:27;;;;;;;9.50;5.72;;;19.40;99.90;;;;;;6271305;22;20019;-69
2023/05/14 10:49:58;;;;;;;6.38;5.38;;;19.40;99.90;;;;;;6243807;22;20079;-66
2023/05/14 10:52:25;;;;;;;7.72;4.95;;;19.40;99.90;;;;;;6271198;22;20016;-67
2023/05/14 10:54:56;;;;;;;8.73;5.53;;;19.50;99.90;;;;;;6271070;22;20016;-67
2023/05/14 10:57:25;;;;;;;24.10;5.93;;;19.50;99.90;;;;;;6271247;22;20027;-66
2023/05/14 11:00:01;;;;;;;5.82;4.85;;;19.50;99.90;;;;;;6243799;22;20094;-66
2023/05/14 11:02:38;;;;;;;6.07;5.07;;;19.50;99.90;;;;;;6271287;22;20020;-66
2023/05/14 11:05:16;;;;;;;9.82;4.68;;;19.60;99.90;;;;;;6271190;22;20440;-66
2023/05/14 11:07:48;;;;;;;9.80;4.97;;;19.70;99.90;;;;;;6270166;22;20016;-69
2023/05/14 11:10:15;;;;;;;11.68;6.03;;;19.80;99.90;;;;;;6242827;22;20023;-67
2023/05/14 11:12:43;;;;;;;9.02;5.20;;;19.80;99.90;;;;;;6222650;22;1130312;-69
2023/05/14 11:15:14;;;;;;;12.05;5.45;;;19.80;99.90;;;;;;6245955;22;20448;-69
2023/05/14 11:17:42;;;;;;;6.97;4.65;;;19.80;99.90;;;;;;6273553;22;20019;-69
2023/05/14 11:20:09;;;;;;;6.18;4.53;;;19.70;99.90;;;;;;6272550;22;20019;-69
2023/05/14 11:22:36;;;;;;;7.65;4.80;;;19.90;99.90;;;;;;6272496;22;20097;-69
2023/05/14 11:25:02;;;;;;;5.60;4.80;;;20.00;99.90;;;;;;6245220;22;20023;-67
2023/05/14 11:27:28;;;;;;;9.35;5.05;;;19.90;99.90;;;;;;6272380;22;20373;-67
2023/05/14 11:29:59;;;;;;;9.70;5.63;;;20.10;99.90;;;;;;6272271;22;20050;-66
2023/05/14 11:32:25;;;;;;;7.20;4.80;;;20.00;99.90;;;;;;6272043;22;20074;-67
2023/05/14 11:34:51;;;;;;;6.13;4.18;;;20.10;99.90;;;;;;6271646;22;20057;-66
2023/05/14 11:37:17;;;;;;;5.75;4.40;;;20.20;99.90;;;;;;6272355;22;20019;-66
2023/05/14 11:39:53;;;;;;;7.38;4.68;;;20.20;99.90;;;;;;6272083;22;20073;-66
2023/05/14 11:42:21;;;;;;;6.28;4.38;;;20.20;99.90;;;;;;6245245;22;20608;-67
2023/05/14 11:44:48;;;;;;;6.38;4.00;;;20.20;99.90;;;;;;6272644;22;20047;-67
2023/05/14 11:47:14;;;;;;;7.32;4.20;;;20.20;99.90;;;;;;6272061;22;20023;-66
2023/05/14 11:49:40;;;;;;;6.05;3.80;;;20.10;99.90;;;;;;6271934;22;20404;-67
2023/05/14 11:52:13;;;;;;;3.83;3.20;;;20.10;99.90;;;;;;6244943;22;20062;-66
2023/05/14 11:54:39;;;;;;;8.95;3.53;;;20.20;99.90;;;;;;6244721;22;20016;-67
2023/05/14 11:57:15;;;;;;;5.50;4.00;;;20.40;99.90;;;;;;6244520;22;20078;-66
2023/05/14 11:59:41;;;;;;;8.23;3.83;;;20.40;99.90;;;;;;6244956;22;20015;-67
2023/05/14 12:02:16;;;;;;;5.80;3.47;;;20.40;99.90;;;;;;6272157;22;20015;-67
2023/05/14 12:04:42;;;;;;;8.10;3.10;;;20.40;99.90;;;;;;6271991;22;20229;-66
2023/05/14 12:07:10;;;;;;;5.88;3.55;;;20.40;99.70;;;;;;6272279;22;20016;-67
2023/05/14 12:09:38;;;;;;;7.20;3.78;;;20.50;98.90;;;;;;6271670;22;20491;-66
2023/05/14 12:12:11;;;;;;;7.95;4.68;;;20.60;98.40;;;;;;6271824;22;20027;-66
2023/05/14 12:14:38;;;;;;;6.88;5.25;;;20.60;99.20;;;;;;6272975;22;20019;-66
2023/05/14 12:17:24;;;;;;;7.78;4.70;;;20.50;99.90;;;;;;6272442;22;20015;-66
2023/05/14 12:19:51;;;;;;;7.50;4.63;;;20.60;98.50;;;;;;6271216;22;20024;-66
2023/05/14 12:22:19;;;;;;;6.65;4.15;;;20.50;99.90;;;;;;6271829;22;20363;-66
2023/05/14 12:24:56;;;;;;;7.20;4.05;;;20.50;99.90;;;;;;6272826;22;20027;-69
2023/05/14 12:27:23;;;;;;;6.43;2.60;;;20.60;98.20;;;;;;6245296;22;20102;-69
2023/05/14 12:30:11;;;;;;;3.47;3.15;;;20.60;98.40;;;;;;6243843;22;20400;-69
2023/05/14 12:32:39;;;;;;;3.83;2.85;;;20.70;96.30;;;;;;6242478;22;20077;-69
2023/05/14 12:35:05;;;;;;;6.97;3.70;;;20.70;97.20;;;;;;6243302;22;20042;-69
2023/05/14 12:37:32;;;;;;;5.57;3.03;;;20.70;97.10;;;;;;6271382;22;20094;-69